Waynesville, NC (28785)

1:16 PM EST on December 19, 2014 (GMT -0500)
WNC Landscaping- J.Creek | Change Station
CLOSE
Current Station
Personal Weather Station
Location: Waynesville, NC
Elevation: 2792 ft
Nearby Weather Stations

Elev 2792 ft 35.55 °N, 83.03 °W | Updated 0 second ago

Partly Cloudy
Partly Cloudy
49.3 °F
Feels Like 49 °F
N
0.0
Wind Variable Wind from North
Gusts 0.0 mph

Today
High -- | Low -- °F
--% Chance of Precip.
Yesterday
High -- | Low -- °F
Precip. -- in
7:36 AM 5:21 PM
Waning Crescent, 7% visible
Pressure 30.11 in
Visibility 10.0 miles
Clouds Clear
Windchill 49 °F
Dew Point 14 °F
Humidity 24%
Rainfall 0.04 in
Snow Depth Not available.
UV 3 out of 12
Pollen .60 out of 12
Air Quality Not available.
Flu Activity Not available.
METAR KAVL 191754Z 34005KT 10SM CLR 10/M02 A3011 RMK AO2 SLP196 T01001017 10100 20017 58018

More Conditions Fewer Conditions

Pressure 30.11 in
Visibility 10.0 miles
Clouds Clear
Windchill 49 °F
Dew Point 14 °F
Humidity 24%
Rainfall 0.04 in
Snow Depth Not available.
UV 3 out of 12
Pollen .60 out of 12
Air Quality Not available.
Flu Activity Not available.
METAR KAVL 191754Z 34005KT 10SM CLR 10/M02 A3011 RMK AO2 SLP196 T01001017 10100 20017 58018

More Conditions Fewer Conditions

10-Day Weather Forecast

Almanac

Astronomy

Dec. 19, 2014 Rise Set
Actual Time
Civil Twilight
Nautical Twilight
Astronomical Twilight
Moon
Length of Visible Light
Length of Day
Tomorrow will be .
, % of the Moon is Illuminated

Today's Extremes

State Highs State Lows

Community

WunderPhotos

Upload Photos

1,779,015 photos uploaded!

WunderBlogs® & News

Nearby

Air Quality

  Air Quality AQ Index Pollutant
Not available.

Snow Depth

Station Depth Elevation

Earthquake Activity

City Distance Mag. Time & Date
Minimum magnitude displayed is 2.5.

Coastal Water Temperatures

Place Temperature

Nearby Weather Stations